sensor_id;sensor_type;location;lat;lon;timestamp;P1;durP1;ratioP1;P2;durP2;ratioP2
7703;SDS011;3894;49.700;10.770;2022-08-11T00:00:00;5.32;;;3.30;;
7703;SDS011;3894;49.700;10.770;2022-08-11T00:02:43;6.13;;;3.28;;
7703;SDS011;3894;49.700;10.770;2022-08-11T00:05:14;5.25;;;3.20;;
7703;SDS011;3894;49.700;10.770;2022-08-11T00:07:49;4.18;;;3.10;;
7703;SDS011;3894;49.700;10.770;2022-08-11T00:10:18;4.68;;;3.20;;
7703;SDS011;3894;49.700;10.770;2022-08-11T00:12:59;4.70;;;3.33;;
7703;SDS011;3894;49.700;10.770;2022-08-11T00:15:36;4.53;;;3.05;;
7703;SDS011;3894;49.700;10.770;2022-08-11T00:18:05;7.05;;;4.32;;
7703;SDS011;3894;49.700;10.770;2022-08-11T00:20:33;6.72;;;4.18;;
7703;SDS011;3894;49.700;10.770;2022-08-11T00:25:36;6.78;;;4.03;;
7703;SDS011;3894;49.700;10.770;2022-08-11T00:28:26;7.05;;;4.55;;
7703;SDS011;3894;49.700;10.770;2022-08-11T00:31:02;7.75;;;4.85;;
7703;SDS011;3894;49.700;10.770;2022-08-11T00:33:47;8.55;;;4.75;;
7703;SDS011;3894;49.700;10.770;2022-08-11T00:36:15;6.72;;;4.35;;
7703;SDS011;3894;49.700;10.770;2022-08-11T00:38:42;6.45;;;4.40;;
7703;SDS011;3894;49.700;10.770;2022-08-11T00:41:13;5.78;;;4.20;;
7703;SDS011;3894;49.700;10.770;2022-08-11T01:09:39;6.95;;;3.90;;
7703;SDS011;3894;49.700;10.770;2022-08-11T01:33:14;7.05;;;4.47;;
7703;SDS011;3894;49.700;10.770;2022-08-11T01:38:54;6.30;;;4.38;;
7703;SDS011;3894;49.700;10.770;2022-08-11T01:44:24;6.88;;;4.70;;
7703;SDS011;3894;49.700;10.770;2022-08-11T01:47:25;9.45;;;5.00;;
7703;SDS011;3894;49.700;10.770;2022-08-11T01:55:39;6.10;;;4.43;;
7703;SDS011;3894;49.700;10.770;2022-08-11T01:58:24;6.38;;;4.55;;
7703;SDS011;3894;49.700;10.770;2022-08-11T02:01:04;6.30;;;4.80;;
7703;SDS011;3894;49.700;10.770;2022-08-11T02:03:54;6.82;;;5.03;;
7703;SDS011;3894;49.700;10.770;2022-08-11T02:06:25;7.32;;;5.18;;
7703;SDS011;3894;49.700;10.770;2022-08-11T02:09:31;6.75;;;5.60;;
7703;SDS011;3894;49.700;10.770;2022-08-11T02:12:00;6.22;;;5.05;;
7703;SDS011;3894;49.700;10.770;2022-08-11T02:14:38;7.05;;;5.57;;
7703;SDS011;3894;49.700;10.770;2022-08-11T02:23:01;5.82;;;4.90;;
7703;SDS011;3894;49.700;10.770;2022-08-11T02:32:15;5.88;;;5.28;;
7703;SDS011;3894;49.700;10.770;2022-08-11T02:40:46;8.40;;;5.20;;
7703;SDS011;3894;49.700;10.770;2022-08-11T02:46:24;9.20;;;5.90;;
7703;SDS011;3894;49.700;10.770;2022-08-11T02:49:39;8.48;;;5.40;;
7703;SDS011;3894;49.700;10.770;2022-08-11T02:57:49;6.25;;;4.90;;
7703;SDS011;3894;49.700;10.770;2022-08-11T03:00:15;6.55;;;4.53;;
7703;SDS011;3894;49.700;10.770;2022-08-11T03:03:29;6.15;;;4.80;;
7703;SDS011;3894;49.700;10.770;2022-08-11T03:14:51;6.68;;;5.63;;
7703;SDS011;3894;49.700;10.770;2022-08-11T03:17:52;8.27;;;5.55;;
7703;SDS011;3894;49.700;10.770;2022-08-11T03:23:26;9.15;;;6.75;;
7703;SDS011;3894;49.700;10.770;2022-08-11T03:25:59;7.15;;;5.22;;
7703;SDS011;3894;49.700;10.770;2022-08-11T03:47:48;7.32;;;6.10;;
7703;SDS011;3894;49.700;10.770;2022-08-11T03:53:07;8.32;;;5.50;;
7703;SDS011;3894;49.700;10.770;2022-08-11T03:58:39;6.55;;;5.20;;
7703;SDS011;3894;49.700;10.770;2022-08-11T04:01:44;7.10;;;5.13;;
7703;SDS011;3894;49.700;10.770;2022-08-11T04:10:28;7.57;;;5.70;;
7703;SDS011;3894;49.700;10.770;2022-08-11T04:35:16;8.35;;;6.20;;
7703;SDS011;3894;49.700;10.770;2022-08-11T04:37:52;8.05;;;6.53;;
7703;SDS011;3894;49.700;10.770;2022-08-11T05:02:44;12.02;;;6.60;;
7703;SDS011;3894;49.700;10.770;2022-08-11T05:11:02;7.78;;;6.53;;
7703;SDS011;3894;49.700;10.770;2022-08-11T05:13:46;9.27;;;6.47;;
7703;SDS011;3894;49.700;10.770;2022-08-11T05:19:24;8.70;;;6.93;;
7703;SDS011;3894;49.700;10.770;2022-08-11T05:22:10;10.68;;;7.18;;
7703;SDS011;3894;49.700;10.770;2022-08-11T05:25:00;10.25;;;7.18;;
7703;SDS011;3894;49.700;10.770;2022-08-11T05:30:46;8.65;;;6.32;;
7703;SDS011;3894;49.700;10.770;2022-08-11T05:36:46;9.98;;;7.60;;
7703;SDS011;3894;49.700;10.770;2022-08-11T05:39:18;9.68;;;7.10;;
7703;SDS011;3894;49.700;10.770;2022-08-11T05:42:08;10.20;;;6.97;;
7703;SDS011;3894;49.700;10.770;2022-08-11T05:44:54;12.25;;;6.80;;
7703;SDS011;3894;49.700;10.770;2022-08-11T05:47:42;8.93;;;6.80;;
7703;SDS011;3894;49.700;10.770;2022-08-11T05:50:30;9.73;;;6.80;;
7703;SDS011;3894;49.700;10.770;2022-08-11T05:53:15;8.68;;;6.88;;
7703;SDS011;3894;49.700;10.770;2022-08-11T05:56:03;9.23;;;6.63;;
7703;SDS011;3894;49.700;10.770;2022-08-11T05:58:43;9.40;;;6.75;;
7703;SDS011;3894;49.700;10.770;2022-08-11T06:03:51;10.38;;;6.75;;
7703;SDS011;3894;49.700;10.770;2022-08-11T06:06:38;10.68;;;7.15;;
7703;SDS011;3894;49.700;10.770;2022-08-11T06:11:52;11.55;;;7.30;;
7703;SDS011;3894;49.700;10.770;2022-08-11T06:14:21;8.48;;;7.10;;
7703;SDS011;3894;49.700;10.770;2022-08-11T06:16:48;11.45;;;6.75;;
7703;SDS011;3894;49.700;10.770;2022-08-11T06:19:18;9.05;;;6.85;;
7703;SDS011;3894;49.700;10.770;2022-08-11T06:21:47;8.18;;;6.32;;
7703;SDS011;3894;49.700;10.770;2022-08-11T06:24:13;9.90;;;5.82;;
7703;SDS011;3894;49.700;10.770;2022-08-11T06:26:40;9.02;;;5.63;;
7703;SDS011;3894;49.700;10.770;2022-08-11T06:29:11;9.57;;;5.40;;
7703;SDS011;3894;49.700;10.770;2022-08-11T06:31:42;6.50;;;5.20;;
7703;SDS011;3894;49.700;10.770;2022-08-11T06:34:37;8.88;;;5.93;;
7703;SDS011;3894;49.700;10.770;2022-08-11T06:37:15;6.90;;;5.00;;
7703;SDS011;3894;49.700;10.770;2022-08-11T06:39:55;8.25;;;4.70;;
7703;SDS011;3894;49.700;10.770;2022-08-11T06:45:25;10.05;;;5.00;;
7703;SDS011;3894;49.700;10.770;2022-08-11T06:48:05;10.38;;;4.50;;
7703;SDS011;3894;49.700;10.770;2022-08-11T06:50:34;5.85;;;4.57;;
7703;SDS011;3894;49.700;10.770;2022-08-11T06:53:19;6.28;;;3.90;;
7703;SDS011;3894;49.700;10.770;2022-08-11T06:55:46;7.80;;;4.35;;
7703;SDS011;3894;49.700;10.770;2022-08-11T06:58:34;6.60;;;3.80;;
7703;SDS011;3894;49.700;10.770;2022-08-11T07:02:05;6.78;;;4.07;;
7703;SDS011;3894;49.700;10.770;2022-08-11T07:04:34;6.80;;;3.85;;
7703;SDS011;3894;49.700;10.770;2022-08-11T07:10:46;5.70;;;3.50;;
7703;SDS011;3894;49.700;10.770;2022-08-11T07:13:53;5.22;;;3.50;;
7703;SDS011;3894;49.700;10.770;2022-08-11T07:16:49;5.18;;;3.58;;
7703;SDS011;3894;49.700;10.770;2022-08-11T07:19:16;6.20;;;3.10;;
7703;SDS011;3894;49.700;10.770;2022-08-11T07:22:05;6.60;;;3.40;;
7703;SDS011;3894;49.700;10.770;2022-08-11T07:24:54;4.32;;;3.30;;
7703;SDS011;3894;49.700;10.770;2022-08-11T07:28:05;4.68;;;2.90;;
7703;SDS011;3894;49.700;10.770;2022-08-11T07:30:57;4.53;;;3.42;;
7703;SDS011;3894;49.700;10.770;2022-08-11T07:33:39;4.38;;;2.92;;
7703;SDS011;3894;49.700;10.770;2022-08-11T07:36:11;5.28;;;3.25;;
7703;SDS011;3894;49.700;10.770;2022-08-11T07:38:40;6.35;;;3.17;;
7703;SDS011;3894;49.700;10.770;2022-08-11T07:41:15;5.07;;;2.90;;
7703;SDS011;3894;49.700;10.770;2022-08-11T07:43:43;4.75;;;3.30;;
7703;SDS011;3894;49.700;10.770;2022-08-11T07:46:13;4.18;;;3.00;;
7703;SDS011;3894;49.700;10.770;2022-08-11T07:48:58;5.32;;;3.08;;
7703;SDS011;3894;49.700;10.770;2022-08-11T07:51:44;3.95;;;2.80;;
7703;SDS011;3894;49.700;10.770;2022-08-11T07:54:29;7.72;;;3.20;;
7703;SDS011;3894;49.700;10.770;2022-08-11T07:56:55;4.30;;;2.85;;
7703;SDS011;3894;49.700;10.770;2022-08-11T07:59:22;4.82;;;3.00;;
7703;SDS011;3894;49.700;10.770;2022-08-11T08:02:07;5.07;;;3.00;;
7703;SDS011;3894;49.700;10.770;2022-08-11T08:04:55;3.80;;;3.03;;
7703;SDS011;3894;49.700;10.770;2022-08-11T08:07:40;3.78;;;2.70;;
7703;SDS011;3894;49.700;10.770;2022-08-11T08:10:24;5.00;;;2.78;;
7703;SDS011;3894;49.700;10.770;2022-08-11T08:13:09;5.00;;;2.90;;
7703;SDS011;3894;49.700;10.770;2022-08-11T08:15:53;4.95;;;2.70;;
7703;SDS011;3894;49.700;10.770;2022-08-11T08:18:38;5.10;;;2.65;;
7703;SDS011;3894;49.700;10.770;2022-08-11T08:21:05;8.65;;;3.00;;
7703;SDS011;3894;49.700;10.770;2022-08-11T08:23:38;6.05;;;2.67;;
7703;SDS011;3894;49.700;10.770;2022-08-11T08:26:12;4.13;;;2.58;;
7703;SDS011;3894;49.700;10.770;2022-08-11T08:29:02;4.05;;;2.67;;
7703;SDS011;3894;49.700;10.770;2022-08-11T08:31:50;5.18;;;2.80;;
7703;SDS011;3894;49.700;10.770;2022-08-11T08:34:16;4.72;;;2.28;;
7703;SDS011;3894;49.700;10.770;2022-08-11T08:36:43;4.53;;;2.78;;
7703;SDS011;3894;49.700;10.770;2022-08-11T08:39:11;4.57;;;2.30;;
7703;SDS011;3894;49.700;10.770;2022-08-11T08:41:38;4.47;;;2.30;;
7703;SDS011;3894;49.700;10.770;2022-08-11T08:44:08;6.03;;;2.80;;
7703;SDS011;3894;49.700;10.770;2022-08-11T08:46:42;3.73;;;2.80;;
7703;SDS011;3894;49.700;10.770;2022-08-11T08:49:12;4.07;;;2.55;;
7703;SDS011;3894;49.700;10.770;2022-08-11T08:51:41;6.25;;;2.60;;
7703;SDS011;3894;49.700;10.770;2022-08-11T08:54:13;4.22;;;2.60;;
7703;SDS011;3894;49.700;10.770;2022-08-11T08:56:43;3.33;;;2.60;;
7703;SDS011;3894;49.700;10.770;2022-08-11T08:59:14;4.35;;;2.78;;
7703;SDS011;3894;49.700;10.770;2022-08-11T09:01:49;3.42;;;2.60;;
7703;SDS011;3894;49.700;10.770;2022-08-11T09:04:19;3.25;;;2.42;;
7703;SDS011;3894;49.700;10.770;2022-08-11T09:06:45;4.15;;;2.50;;
7703;SDS011;3894;49.700;10.770;2022-08-11T09:09:12;3.97;;;2.65;;
7703;SDS011;3894;49.700;10.770;2022-08-11T09:11:39;3.13;;;2.75;;
7703;SDS011;3894;49.700;10.770;2022-08-11T09:14:18;3.67;;;2.67;;
7703;SDS011;3894;49.700;10.770;2022-08-11T09:16:45;4.25;;;2.60;;
7703;SDS011;3894;49.700;10.770;2022-08-11T09:19:12;3.50;;;2.35;;
7703;SDS011;3894;49.700;10.770;2022-08-11T09:21:42;3.80;;;2.50;;
7703;SDS011;3894;49.700;10.770;2022-08-11T09:24:10;4.75;;;2.60;;
7703;SDS011;3894;49.700;10.770;2022-08-11T09:26:55;5.10;;;3.00;;
7703;SDS011;3894;49.700;10.770;2022-08-11T09:29:28;3.83;;;2.80;;
7703;SDS011;3894;49.700;10.770;2022-08-11T09:31:55;4.93;;;2.80;;
7703;SDS011;3894;49.700;10.770;2022-08-11T09:34:22;4.40;;;2.83;;
7703;SDS011;3894;49.700;10.770;2022-08-11T09:36:50;3.80;;;2.63;;
7703;SDS011;3894;49.700;10.770;2022-08-11T09:39:35;3.58;;;2.28;;
7703;SDS011;3894;49.700;10.770;2022-08-11T09:42:21;4.50;;;2.70;;
7703;SDS011;3894;49.700;10.770;2022-08-11T09:45:09;3.65;;;2.22;;
7703;SDS011;3894;49.700;10.770;2022-08-11T09:47:35;4.22;;;2.58;;
7703;SDS011;3894;49.700;10.770;2022-08-11T09:50:03;4.13;;;2.30;;
7703;SDS011;3894;49.700;10.770;2022-08-11T09:52:34;5.05;;;2.30;;
7703;SDS011;3894;49.700;10.770;2022-08-11T09:55:02;3.50;;;2.20;;
7703;SDS011;3894;49.700;10.770;2022-08-11T09:57:35;3.92;;;2.40;;
7703;SDS011;3894;49.700;10.770;2022-08-11T10:00:38;4.40;;;2.38;;
7703;SDS011;3894;49.700;10.770;2022-08-11T10:03:14;3.75;;;2.50;;
7703;SDS011;3894;49.700;10.770;2022-08-11T10:05:47;2.95;;;1.90;;
7703;SDS011;3894;49.700;10.770;2022-08-11T10:08:44;4.00;;;2.42;;
7703;SDS011;3894;49.700;10.770;2022-08-11T10:13:44;5.07;;;2.40;;
7703;SDS011;3894;49.700;10.770;2022-08-11T10:16:31;4.30;;;2.30;;
7703;SDS011;3894;49.700;10.770;2022-08-11T10:19:01;3.13;;;2.22;;
7703;SDS011;3894;49.700;10.770;2022-08-11T10:21:31;5.10;;;2.22;;
7703;SDS011;3894;49.700;10.770;2022-08-11T10:24:03;4.43;;;2.03;;
7703;SDS011;3894;49.700;10.770;2022-08-11T10:26:49;2.92;;;1.90;;
7703;SDS011;3894;49.700;10.770;2022-08-11T10:29:24;3.85;;;2.10;;
7703;SDS011;3894;49.700;10.770;2022-08-11T10:32:22;2.90;;;2.00;;
7703;SDS011;3894;49.700;10.770;2022-08-11T10:35:08;2.70;;;1.90;;
7703;SDS011;3894;49.700;10.770;2022-08-11T10:37:37;2.08;;;1.88;;
7703;SDS011;3894;49.700;10.770;2022-08-11T10:40:05;2.47;;;1.83;;
7703;SDS011;3894;49.700;10.770;2022-08-11T10:42:32;2.63;;;2.03;;
7703;SDS011;3894;49.700;10.770;2022-08-11T10:45:17;3.35;;;2.10;;
7703;SDS011;3894;49.700;10.770;2022-08-11T10:48:03;4.40;;;2.15;;
7703;SDS011;3894;49.700;10.770;2022-08-11T10:50:30;3.45;;;1.98;;
7703;SDS011;3894;49.700;10.770;2022-08-11T10:53:16;3.78;;;2.00;;
7703;SDS011;3894;49.700;10.770;2022-08-11T10:56:02;3.03;;;2.10;;
7703;SDS011;3894;49.700;10.770;2022-08-11T10:58:47;2.65;;;1.92;;
7703;SDS011;3894;49.700;10.770;2022-08-11T11:03:48;2.80;;;1.80;;
7703;SDS011;3894;49.700;10.770;2022-08-11T11:08:59;3.70;;;2.10;;
7703;SDS011;3894;49.700;10.770;2022-08-11T11:11:29;3.05;;;2.03;;
7703;SDS011;3894;49.700;10.770;2022-08-11T11:14:17;4.10;;;2.10;;
7703;SDS011;3894;49.700;10.770;2022-08-11T11:17:04;5.55;;;2.15;;
7703;SDS011;3894;49.700;10.770;2022-08-11T11:19:37;4.13;;;2.08;;
7703;SDS011;3894;49.700;10.770;2022-08-11T11:22:04;2.20;;;1.80;;
7703;SDS011;3894;49.700;10.770;2022-08-11T11:27:20;2.97;;;2.00;;
7703;SDS011;3894;49.700;10.770;2022-08-11T11:35:25;2.38;;;1.98;;
7703;SDS011;3894;49.700;10.770;2022-08-11T11:38:02;3.58;;;2.15;;
7703;SDS011;3894;49.700;10.770;2022-08-11T11:40:33;4.93;;;2.28;;
7703;SDS011;3894;49.700;10.770;2022-08-11T11:43:01;3.45;;;2.20;;
7703;SDS011;3894;49.700;10.770;2022-08-11T11:45:29;3.63;;;2.25;;
7703;SDS011;3894;49.700;10.770;2022-08-11T11:47:56;2.78;;;2.10;;
7703;SDS011;3894;49.700;10.770;2022-08-11T11:50:24;3.75;;;2.00;;
7703;SDS011;3894;49.700;10.770;2022-08-11T11:52:53;4.88;;;2.20;;
7703;SDS011;3894;49.700;10.770;2022-08-11T11:55:20;2.58;;;1.92;;
7703;SDS011;3894;49.700;10.770;2022-08-11T11:57:48;4.47;;;2.00;;
7703;SDS011;3894;49.700;10.770;2022-08-11T12:00:33;3.22;;;2.00;;
7703;SDS011;3894;49.700;10.770;2022-08-11T12:03:18;2.35;;;1.90;;
7703;SDS011;3894;49.700;10.770;2022-08-11T12:05:44;2.83;;;2.15;;
7703;SDS011;3894;49.700;10.770;2022-08-11T12:08:14;4.25;;;2.40;;
7703;SDS011;3894;49.700;10.770;2022-08-11T12:13:46;4.07;;;2.00;;
7703;SDS011;3894;49.700;10.770;2022-08-11T12:16:14;3.67;;;1.98;;
7703;SDS011;3894;49.700;10.770;2022-08-11T12:18:42;3.45;;;2.10;;
7703;SDS011;3894;49.700;10.770;2022-08-11T12:21:12;3.58;;;2.08;;
7703;SDS011;3894;49.700;10.770;2022-08-11T12:23:39;3.92;;;2.33;;
7703;SDS011;3894;49.700;10.770;2022-08-11T12:26:25;4.72;;;2.00;;
7703;SDS011;3894;49.700;10.770;2022-08-11T12:29:10;4.20;;;2.20;;
7703;SDS011;3894;49.700;10.770;2022-08-11T12:31:40;5.35;;;1.80;;
7703;SDS011;3894;49.700;10.770;2022-08-11T12:34:11;2.60;;;1.90;;
7703;SDS011;3894;49.700;10.770;2022-08-11T12:36:42;2.63;;;1.70;;
7703;SDS011;3894;49.700;10.770;2022-08-11T12:39:15;3.05;;;1.98;;
7703;SDS011;3894;49.700;10.770;2022-08-11T12:44:49;4.03;;;1.58;;
7703;SDS011;3894;49.700;10.770;2022-08-11T12:47:36;3.63;;;1.90;;
7703;SDS011;3894;49.700;10.770;2022-08-11T12:50:25;3.45;;;2.00;;
7703;SDS011;3894;49.700;10.770;2022-08-11T12:53:09;4.13;;;1.83;;
7703;SDS011;3894;49.700;10.770;2022-08-11T12:55:36;2.50;;;1.95;;
7703;SDS011;3894;49.700;10.770;2022-08-11T12:58:23;4.30;;;1.90;;
7703;SDS011;3894;49.700;10.770;2022-08-11T13:00:51;4.50;;;2.00;;
7703;SDS011;3894;49.700;10.770;2022-08-11T13:03:41;2.20;;;1.60;;
7703;SDS011;3894;49.700;10.770;2022-08-11T13:06:25;3.13;;;1.90;;
7703;SDS011;3894;49.700;10.770;2022-08-11T13:08:51;3.53;;;1.95;;
7703;SDS011;3894;49.700;10.770;2022-08-11T13:11:21;3.97;;;1.80;;
7703;SDS011;3894;49.700;10.770;2022-08-11T13:14:06;2.83;;;2.00;;
7703;SDS011;3894;49.700;10.770;2022-08-11T13:16:33;2.60;;;1.77;;
7703;SDS011;3894;49.700;10.770;2022-08-11T13:19:21;3.80;;;1.98;;
7703;SDS011;3894;49.700;10.770;2022-08-11T13:21:50;4.65;;;2.00;;
7703;SDS011;3894;49.700;10.770;2022-08-11T13:24:25;3.67;;;1.98;;
7703;SDS011;3894;49.700;10.770;2022-08-11T13:26:52;2.88;;;1.80;;
7703;SDS011;3894;49.700;10.770;2022-08-11T13:29:19;3.17;;;1.70;;
7703;SDS011;3894;49.700;10.770;2022-08-11T13:31:50;3.45;;;1.90;;
7703;SDS011;3894;49.700;10.770;2022-08-11T13:34:18;4.65;;;2.05;;
7703;SDS011;3894;49.700;10.770;2022-08-11T13:36:55;2.80;;;2.00;;
7703;SDS011;3894;49.700;10.770;2022-08-11T13:39:30;2.33;;;1.80;;
7703;SDS011;3894;49.700;10.770;2022-08-11T13:42:11;3.42;;;1.88;;
7703;SDS011;3894;49.700;10.770;2022-08-11T13:44:40;2.67;;;1.80;;
7703;SDS011;3894;49.700;10.770;2022-08-11T13:47:07;4.93;;;1.73;;
7703;SDS011;3894;49.700;10.770;2022-08-11T13:49:38;4.75;;;1.90;;
7703;SDS011;3894;49.700;10.770;2022-08-11T13:52:08;2.88;;;1.80;;
7703;SDS011;3894;49.700;10.770;2022-08-11T13:54:38;3.30;;;2.28;;
7703;SDS011;3894;49.700;10.770;2022-08-11T13:57:07;2.28;;;1.88;;
7703;SDS011;3894;49.700;10.770;2022-08-11T13:59:35;4.00;;;1.83;;
7703;SDS011;3894;49.700;10.770;2022-08-11T14:02:03;2.80;;;1.88;;
7703;SDS011;3894;49.700;10.770;2022-08-11T14:07:08;3.28;;;1.70;;
7703;SDS011;3894;49.700;10.770;2022-08-11T14:09:36;2.67;;;2.03;;
7703;SDS011;3894;49.700;10.770;2022-08-11T14:12:12;3.67;;;2.10;;
7703;SDS011;3894;49.700;10.770;2022-08-11T14:15:04;3.70;;;1.90;;
7703;SDS011;3894;49.700;10.770;2022-08-11T14:17:38;3.47;;;2.20;;
7703;SDS011;3894;49.700;10.770;2022-08-11T14:20:06;3.15;;;1.63;;
7703;SDS011;3894;49.700;10.770;2022-08-11T14:22:40;5.85;;;1.95;;
7703;SDS011;3894;49.700;10.770;2022-08-11T14:25:10;5.22;;;1.85;;
7703;SDS011;3894;49.700;10.770;2022-08-11T14:27:39;4.47;;;1.90;;
7703;SDS011;3894;49.700;10.770;2022-08-11T14:30:07;2.60;;;1.90;;
7703;SDS011;3894;49.700;10.770;2022-08-11T14:32:53;2.50;;;2.03;;
7703;SDS011;3894;49.700;10.770;2022-08-11T14:35:21;3.85;;;2.03;;
7703;SDS011;3894;49.700;10.770;2022-08-11T14:37:47;2.33;;;1.75;;
7703;SDS011;3894;49.700;10.770;2022-08-11T14:40:20;2.53;;;1.88;;
7703;SDS011;3894;49.700;10.770;2022-08-11T14:43:04;2.70;;;1.67;;
7703;SDS011;3894;49.700;10.770;2022-08-11T14:45:48;3.63;;;1.90;;
7703;SDS011;3894;49.700;10.770;2022-08-11T14:48:33;2.33;;;1.60;;
7703;SDS011;3894;49.700;10.770;2022-08-11T14:51:02;2.00;;;1.63;;
7703;SDS011;3894;49.700;10.770;2022-08-11T14:53:29;3.55;;;1.85;;
7703;SDS011;3894;49.700;10.770;2022-08-11T14:55:55;3.38;;;2.08;;
7703;SDS011;3894;49.700;10.770;2022-08-11T14:58:40;5.32;;;1.98;;
7703;SDS011;3894;49.700;10.770;2022-08-11T15:01:07;3.17;;;1.88;;
7703;SDS011;3894;49.700;10.770;2022-08-11T15:03:54;4.13;;;1.90;;
7703;SDS011;3894;49.700;10.770;2022-08-11T15:06:21;2.60;;;1.73;;
7703;SDS011;3894;49.700;10.770;2022-08-11T15:08:50;4.13;;;1.92;;
7703;SDS011;3894;49.700;10.770;2022-08-11T15:11:28;3.33;;;2.00;;
7703;SDS011;3894;49.700;10.770;2022-08-11T15:14:14;3.63;;;1.92;;
7703;SDS011;3894;49.700;10.770;2022-08-11T15:17:05;5.32;;;2.00;;
7703;SDS011;3894;49.700;10.770;2022-08-11T15:19:38;3.20;;;1.85;;
7703;SDS011;3894;49.700;10.770;2022-08-11T15:22:24;3.17;;;1.67;;
7703;SDS011;3894;49.700;10.770;2022-08-11T15:25:14;2.63;;;1.90;;
7703;SDS011;3894;49.700;10.770;2022-08-11T15:27:41;2.55;;;1.73;;
7703;SDS011;3894;49.700;10.770;2022-08-11T15:30:31;2.85;;;1.90;;
7703;SDS011;3894;49.700;10.770;2022-08-11T15:33:16;4.22;;;1.83;;
7703;SDS011;3894;49.700;10.770;2022-08-11T15:36:02;3.25;;;1.90;;
7703;SDS011;3894;49.700;10.770;2022-08-11T15:38:54;5.05;;;2.00;;
7703;SDS011;3894;49.700;10.770;2022-08-11T15:41:29;2.40;;;1.85;;
7703;SDS011;3894;49.700;10.770;2022-08-11T15:44:36;3.58;;;2.20;;
7703;SDS011;3894;49.700;10.770;2022-08-11T15:47:26;3.20;;;1.80;;
7703;SDS011;3894;49.700;10.770;2022-08-11T15:49:57;3.25;;;2.20;;
7703;SDS011;3894;49.700;10.770;2022-08-11T15:52:27;2.95;;;1.67;;
7703;SDS011;3894;49.700;10.770;2022-08-11T15:55:09;4.45;;;2.28;;
7703;SDS011;3894;49.700;10.770;2022-08-11T15:57:35;3.95;;;1.85;;
7703;SDS011;3894;49.700;10.770;2022-08-11T16:00:21;3.10;;;1.83;;
7703;SDS011;3894;49.700;10.770;2022-08-11T16:03:06;3.08;;;1.80;;
7703;SDS011;3894;49.700;10.770;2022-08-11T16:05:52;2.63;;;1.70;;
7703;SDS011;3894;49.700;10.770;2022-08-11T16:08:18;4.35;;;1.90;;
7703;SDS011;3894;49.700;10.770;2022-08-11T16:10:49;3.88;;;2.00;;
7703;SDS011;3894;49.700;10.770;2022-08-11T16:13:16;7.18;;;2.13;;
7703;SDS011;3894;49.700;10.770;2022-08-11T16:15:49;3.00;;;1.80;;
7703;SDS011;3894;49.700;10.770;2022-08-11T16:18:41;2.47;;;1.80;;
7703;SDS011;3894;49.700;10.770;2022-08-11T16:21:24;3.83;;;1.80;;
7703;SDS011;3894;49.700;10.770;2022-08-11T16:23:52;5.22;;;1.90;;
7703;SDS011;3894;49.700;10.770;2022-08-11T16:26:21;3.15;;;1.90;;
7703;SDS011;3894;49.700;10.770;2022-08-11T16:28:51;3.45;;;1.80;;
7703;SDS011;3894;49.700;10.770;2022-08-11T16:31:19;5.93;;;2.03;;
7703;SDS011;3894;49.700;10.770;2022-08-11T16:33:50;2.72;;;1.67;;
7703;SDS011;3894;49.700;10.770;2022-08-11T16:36:18;2.75;;;1.90;;
7703;SDS011;3894;49.700;10.770;2022-08-11T16:39:04;4.40;;;2.10;;
7703;SDS011;3894;49.700;10.770;2022-08-11T16:41:33;2.95;;;1.83;;
7703;SDS011;3894;49.700;10.770;2022-08-11T16:44:18;2.92;;;1.63;;
7703;SDS011;3894;49.700;10.770;2022-08-11T16:47:09;2.70;;;1.90;;
7703;SDS011;3894;49.700;10.770;2022-08-11T16:49:42;2.00;;;1.75;;
7703;SDS011;3894;49.700;10.770;2022-08-11T16:52:11;2.72;;;1.88;;
7703;SDS011;3894;49.700;10.770;2022-08-11T16:54:37;3.22;;;1.60;;
7703;SDS011;3894;49.700;10.770;2022-08-11T16:57:05;2.47;;;1.55;;
7703;SDS011;3894;49.700;10.770;2022-08-11T16:59:54;2.83;;;1.92;;
7703;SDS011;3894;49.700;10.770;2022-08-11T17:02:30;4.63;;;1.70;;
7703;SDS011;3894;49.700;10.770;2022-08-11T17:05:18;5.22;;;2.03;;
7703;SDS011;3894;49.700;10.770;2022-08-11T17:08:06;2.78;;;1.77;;
7703;SDS011;3894;49.700;10.770;2022-08-11T17:11:11;2.83;;;1.77;;
7703;SDS011;3894;49.700;10.770;2022-08-11T17:13:57;2.88;;;1.90;;
7703;SDS011;3894;49.700;10.770;2022-08-11T17:16:36;2.63;;;1.80;;
7703;SDS011;3894;49.700;10.770;2022-08-11T17:19:09;3.60;;;1.92;;
7703;SDS011;3894;49.700;10.770;2022-08-11T17:21:38;2.47;;;1.80;;
7703;SDS011;3894;49.700;10.770;2022-08-11T17:24:26;2.20;;;1.70;;
7703;SDS011;3894;49.700;10.770;2022-08-11T17:26:55;2.58;;;1.60;;
7703;SDS011;3894;49.700;10.770;2022-08-11T17:32:40;4.18;;;1.77;;
7703;SDS011;3894;49.700;10.770;2022-08-11T17:35:33;2.77;;;1.60;;
7703;SDS011;3894;49.700;10.770;2022-08-11T17:38:26;2.85;;;1.98;;
7703;SDS011;3894;49.700;10.770;2022-08-11T17:40:52;2.53;;;1.63;;
7703;SDS011;3894;49.700;10.770;2022-08-11T17:43:39;4.25;;;1.73;;
7703;SDS011;3894;49.700;10.770;2022-08-11T17:46:25;2.88;;;1.77;;
7703;SDS011;3894;49.700;10.770;2022-08-11T17:49:11;3.47;;;1.90;;
7703;SDS011;3894;49.700;10.770;2022-08-11T17:51:45;3.80;;;1.77;;
7703;SDS011;3894;49.700;10.770;2022-08-11T17:54:32;2.67;;;1.85;;
7703;SDS011;3894;49.700;10.770;2022-08-11T17:57:19;3.70;;;2.05;;
7703;SDS011;3894;49.700;10.770;2022-08-11T18:00:04;3.28;;;2.13;;
7703;SDS011;3894;49.700;10.770;2022-08-11T18:02:37;5.20;;;2.10;;
7703;SDS011;3894;49.700;10.770;2022-08-11T18:05:24;4.22;;;2.00;;
7703;SDS011;3894;49.700;10.770;2022-08-11T18:07:53;4.55;;;1.73;;
7703;SDS011;3894;49.700;10.770;2022-08-11T18:10:40;3.13;;;1.83;;
7703;SDS011;3894;49.700;10.770;2022-08-11T18:13:26;3.15;;;2.03;;
7703;SDS011;3894;49.700;10.770;2022-08-11T18:16:13;3.63;;;1.88;;
7703;SDS011;3894;49.700;10.770;2022-08-11T18:18:57;5.18;;;2.22;;
7703;SDS011;3894;49.700;10.770;2022-08-11T18:21:43;4.68;;;2.10;;
7703;SDS011;3894;49.700;10.770;2022-08-11T18:24:30;5.07;;;2.20;;
7703;SDS011;3894;49.700;10.770;2022-08-11T18:27:19;5.30;;;2.40;;
7703;SDS011;3894;49.700;10.770;2022-08-11T18:30:08;4.35;;;2.08;;
7703;SDS011;3894;49.700;10.770;2022-08-11T18:32:53;4.85;;;2.10;;
7703;SDS011;3894;49.700;10.770;2022-08-11T18:35:40;3.63;;;2.22;;
7703;SDS011;3894;49.700;10.770;2022-08-11T18:38:26;5.43;;;2.22;;
7703;SDS011;3894;49.700;10.770;2022-08-11T18:41:12;5.90;;;2.33;;
7703;SDS011;3894;49.700;10.770;2022-08-11T18:43:58;5.90;;;2.72;;
7703;SDS011;3894;49.700;10.770;2022-08-11T18:46:45;4.95;;;2.83;;
7703;SDS011;3894;49.700;10.770;2022-08-11T18:49:36;4.45;;;2.58;;
7703;SDS011;3894;49.700;10.770;2022-08-11T18:52:24;5.20;;;2.60;;
7703;SDS011;3894;49.700;10.770;2022-08-11T18:55:12;4.70;;;2.53;;
7703;SDS011;3894;49.700;10.770;2022-08-11T18:57:59;6.47;;;2.45;;
7703;SDS011;3894;49.700;10.770;2022-08-11T19:00:48;3.60;;;2.20;;
7703;SDS011;3894;49.700;10.770;2022-08-11T19:03:34;18.40;;;3.30;;
7703;SDS011;3894;49.700;10.770;2022-08-11T19:06:21;40.25;;;3.90;;
7703;SDS011;3894;49.700;10.770;2022-08-11T19:09:11;24.50;;;3.22;;
7703;SDS011;3894;49.700;10.770;2022-08-11T19:11:58;14.70;;;3.00;;
7703;SDS011;3894;49.700;10.770;2022-08-11T19:14:44;33.45;;;3.33;;
7703;SDS011;3894;49.700;10.770;2022-08-11T19:17:30;17.10;;;3.28;;
7703;SDS011;3894;49.700;10.770;2022-08-11T19:20:18;16.65;;;2.78;;
7703;SDS011;3894;49.700;10.770;2022-08-11T19:23:05;9.43;;;2.40;;
7703;SDS011;3894;49.700;10.770;2022-08-11T19:25:51;12.13;;;2.50;;
7703;SDS011;3894;49.700;10.770;2022-08-11T19:28:36;11.48;;;2.58;;
7703;SDS011;3894;49.700;10.770;2022-08-11T19:31:22;17.13;;;2.83;;
7703;SDS011;3894;49.700;10.770;2022-08-11T19:34:08;9.75;;;3.00;;
7703;SDS011;3894;49.700;10.770;2022-08-11T19:36:52;10.38;;;3.15;;
7703;SDS011;3894;49.700;10.770;2022-08-11T19:39:39;13.60;;;3.40;;
7703;SDS011;3894;49.700;10.770;2022-08-11T19:42:24;13.80;;;2.97;;
7703;SDS011;3894;49.700;10.770;2022-08-11T19:45:11;11.23;;;2.50;;
7703;SDS011;3894;49.700;10.770;2022-08-11T19:47:57;10.00;;;3.03;;
7703;SDS011;3894;49.700;10.770;2022-08-11T19:50:41;8.50;;;2.65;;
7703;SDS011;3894;49.700;10.770;2022-08-11T19:53:26;7.35;;;2.72;;
7703;SDS011;3894;49.700;10.770;2022-08-11T19:56:11;8.32;;;2.67;;